KSPF/SPF METAR and TAF weather

Enter ICAO airport designator
Station Type Date Time Source
KSPF METAR 2020/02/25 11:55 UTC NOAA

KSPF 251155Z AUTO 35009KT 2 1/2SM -SN FEW003 BKN010 BKN015 M05/M06 A3027 RMK AO2


Station Type Date Time Source
KSPF Decoded METAR 2020/02/25 11:55 UTC NOAA

Spearfish / Clyde Ice, SD, United States (KSPF) 44-29N 103-47W
Feb 25, 2020 - 06:55 AM EST / 2020.02.25 1155 UTC
Wind: from the N (350 degrees) at 10 MPH (9 KT):0
Visibility: 2 1/2 mile(s):0
Sky conditions: mostly cloudy
Weather: light snow
Temperature: 23 F (-5 C)
Windchill: 12 F (-11 C):1
Dew Point: 21 F (-6 C)
Relative Humidity: 92%
Pressure (altimeter): 30.27 in. Hg (1025 hPa)
ob: KSPF 251155Z AUTO 35009KT 2 1/2SM -SN FEW003 BKN010 BKN015 M05/M06 A3027 RMK AO2
cycle: 12

Station Type Date Time Source
KSPF TAF UTC NOAA

Error!

Example: see airport list